»·PEaware :: CGVZB KDFW-KMCI

CGVZB :: KDFW-KMCI

FLIGHT INFORMATION

Flight Status: Arrived
Operator: Unknown
More flights by this operator :: More flights under this callsign
Pilot: Alan S. (10569)
Aircraft: BOEING 737-300
(B733)
More flights by this aircraft type
Origin: KDFW Dallas-Ft Worth Intl
United States
Destination: KMCI Kansas City Intl
United States
More flights between these airports :: More routes between these airports
Route: KDFW/17C TEX5 TUL J87 COODY CNU JHAWK6 KMCI 01R
File this flight plan on PilotEdge
Remarks: EQUIP / G @twitch.tv / aerosimgaming
Altitude:
(Current/Filed)
31,000ft
Speed:
(Current/Filed)
460kts
Departed: 26-Apr-16 11:03 PM
Arrived: 27-Apr-16 12:12 AM
Distance/Time
Traveled:
400nm/1:09
Distance/Time
To Go:
Arrived

Flight Plot

Page will automatically refresh every two minutes.


Map Options




Map Legend


Flown Route
Filed Route
Departure Airport
Arrival Airport
Navaid (VOR, NDB)
Fix

Horizontal Profiles

Position Reports

Time Latitude Longitude Heading Altitude Ground
Speed
26-Apr-16 22:40 32.915600 -97.027425 90 614ft 0kts
26-Apr-16 22:41 32.915600 -97.027425 90 614ft 0kts
26-Apr-16 22:42 32.915600 -97.027425 90 614ft 0kts
26-Apr-16 22:43 32.915600 -97.027425 90 614ft 0kts
26-Apr-16 22:44 32.915600 -97.027425 90 614ft 0kts
26-Apr-16 22:45 32.915600 -97.027425 90 614ft 0kts
26-Apr-16 22:46 32.915600 -97.027425 90 614ft 0kts
26-Apr-16 22:47 32.915600 -97.027425 90 614ft 0kts
26-Apr-16 22:48 32.915600 -97.027425 90 614ft 0kts
26-Apr-16 22:49 32.915600 -97.027425 90 614ft 0kts
26-Apr-16 22:50 32.915600 -97.027425 90 614ft 0kts
26-Apr-16 22:51 32.915600 -97.027425 90 614ft 0kts
26-Apr-16 22:52 32.915146 -97.025952 176 614ft 13kts
26-Apr-16 22:53 32.914910 -97.025954 177 614ft 0kts
26-Apr-16 22:54 32.894164 -97.026025 179 654ft 168kts
26-Apr-16 22:55 32.860992 -97.061556 277 2274ft 203kts
26-Apr-16 22:56 32.881420 -97.125387 289 3929ft 210kts
26-Apr-16 22:57 32.917959 -97.178920 5 5000ft 245kts
26-Apr-16 22:58 32.979967 -97.141728 22 6097ft 276kts
26-Apr-16 22:59 33.054012 -97.108916 21 7754ft 295kts
26-Apr-16 23:00 33.126190 -97.077339 18 9380ft 304kts
26-Apr-16 23:01 33.211349 -97.042485 17 10104ft 352kts
26-Apr-16 23:02 33.308636 -97.002934 16 11357ft 382kts
26-Apr-16 23:03 33.392541 -96.968793 15 13147ft 390kts
26-Apr-16 23:04 33.496056 -96.926575 15 15051ft 400kts
26-Apr-16 23:05 33.601384 -96.883512 14 16775ft 411kts
26-Apr-16 23:06 33.709964 -96.839003 14 18413ft 421kts
26-Apr-16 23:07 33.821169 -96.793291 14 20068ft 431kts
26-Apr-16 23:08 33.934642 -96.746515 14 21579ft 440kts
26-Apr-16 23:09 34.050453 -96.698643 14 22949ft 450kts
26-Apr-16 23:10 34.168177 -96.649842 13 24205ft 458kts
26-Apr-16 23:11 34.289187 -96.599533 14 25218ft 470kts
26-Apr-16 23:12 34.408526 -96.547899 19 26444ft 473kts
26-Apr-16 23:13 34.530895 -96.496170 18 27513ft 478kts
26-Apr-16 23:14 34.655797 -96.443930 18 28397ft 485kts
26-Apr-16 23:15 34.779300 -96.392103 18 29256ft 490kts
26-Apr-16 23:16 34.902760 -96.340243 18 30027ft 494kts
26-Apr-16 23:17 35.027281 -96.288155 18 30696ft 496kts
26-Apr-16 23:18 35.150996 -96.235740 18 30906ft 504kts
26-Apr-16 23:19 35.277860 -96.181803 17 30898ft 504kts
26-Apr-16 23:20 35.405330 -96.144920 347 30644ft 480kts
26-Apr-16 23:21 35.528615 -96.189157 334 30818ft 470kts
26-Apr-16 23:22 35.647081 -96.242925 334 30934ft 472kts
26-Apr-16 23:23 35.766346 -96.296810 340 30935ft 476kts
26-Apr-16 23:24 35.897913 -96.312141 352 30934ft 483kts
26-Apr-16 23:25 36.023932 -96.322043 352 30930ft 482kts
26-Apr-16 23:26 36.150277 -96.308864 20 30935ft 490kts
26-Apr-16 23:27 36.272236 -96.246332 22 30953ft 492kts
26-Apr-16 23:28 36.396613 -96.201529 351 30976ft 479kts
26-Apr-16 23:29 36.527024 -96.221176 348 30949ft 487kts
26-Apr-16 23:30 36.660392 -96.242751 348 30947ft 493kts
26-Apr-16 23:31 36.795115 -96.264687 348 30945ft 496kts
26-Apr-16 23:32 36.930010 -96.286632 348 30955ft 485kts
26-Apr-16 23:33 37.059181 -96.307790 348 30919ft 489kts
26-Apr-16 23:34 37.175601 -96.252064 62 30897ft 485kts
26-Apr-16 23:35 37.253977 -96.116415 50 30983ft 495kts
26-Apr-16 23:36 37.340900 -95.998452 48 30543ft 433kts
26-Apr-16 23:37 37.415538 -95.888238 52 29667ft 423kts
26-Apr-16 23:38 37.493644 -95.779018 49 30186ft 427kts
26-Apr-16 23:39 37.567418 -95.661128 56 29753ft 432kts
26-Apr-16 23:40 37.639076 -95.568809 52 28331ft 447kts
26-Apr-16 23:41 37.724273 -95.428413 56 26257ft 431kts
26-Apr-16 23:42 37.793661 -95.311351 57 24612ft 412kts
26-Apr-16 23:43 37.849686 -95.216715 58 23462ft 405kts
26-Apr-16 23:44 37.915395 -95.104719 58 22072ft 394kts
26-Apr-16 23:45 37.978466 -94.996824 59 20704ft 388kts
26-Apr-16 23:46 38.044382 -94.883634 59 19973ft 401kts
26-Apr-16 23:47 38.108338 -94.773473 59 19971ft 405kts
26-Apr-16 23:48 38.173428 -94.660994 59 19975ft 405kts
26-Apr-16 23:49 38.239489 -94.546879 54 19969ft 407kts
26-Apr-16 23:50 38.344688 -94.514384 340 19953ft 433kts
26-Apr-16 23:51 38.462820 -94.559993 341 16112ft 470kts
26-Apr-16 23:52 38.581118 -94.605814 342 13429ft 435kts
26-Apr-16 23:53 38.691080 -94.648593 341 11082ft 404kts
26-Apr-16 23:54 38.791566 -94.687733 339 9750ft 349kts
26-Apr-16 23:55 38.874716 -94.720320 338 9265ft 302kts
26-Apr-16 23:56 38.955130 -94.751846 338 7533ft 303kts
26-Apr-16 23:57 39.032876 -94.779267 357 6073ft 289kts
26-Apr-16 23:58 39.102773 -94.762418 9 5867ft 235kts
26-Apr-16 23:59 39.163064 -94.745001 13 4217ft 213kts
27-Apr-16 00:00 39.217942 -94.727768 13 2502ft 199kts
27-Apr-16 00:01 39.266111 -94.713565 12 1509ft 158kts
27-Apr-16 00:02 39.299164 -94.703814 10 1033ft 53kts
27-Apr-16 00:03 39.297807 -94.706778 192 1033ft 17kts
27-Apr-16 00:04 39.292876 -94.708223 193 1033ft 18kts
27-Apr-16 00:05 39.288999 -94.709358 193 1033ft 12kts
27-Apr-16 00:06 39.287962 -94.708223 88 1033ft 0kts
27-Apr-16 00:07 39.287963 -94.708207 88 1033ft 0kts
27-Apr-16 00:08 39.287963 -94.708207 88 1033ft 0kts
27-Apr-16 00:09 39.287825 -94.708105 197 1033ft 1kts
27-Apr-16 00:10 39.287815 -94.708619 43 1033ft 12kts
27-Apr-16 00:11 39.155955 -94.746853 11 4430ft 215kts
27-Apr-16 00:12 39.210664 -94.729970 13 2740ft 200kts
27-Apr-16 00:13 39.260124 -94.715282 11 1635ft 160kts
27-Apr-16 00:14 39.218297 -94.727660 13 2490ft 199kts
27-Apr-16 00:15 39.266148 -94.713555 12 1508ft 158kts
27-Apr-16 00:16 39.299118 -94.703825 11 1033ft 54kts
27-Apr-16 00:17 39.287778 -94.708297 249 1033ft 0kts

Navigation Log

Ident Type
1. KDFW Airport
2. TUL Navaid
3. COODY Fix
4. CNU Navaid
5. KMCI Airport